Terminal Aerodrome Forecast
Issued by NWS

Home | Current Version | Previous Version | Text Only | Print | Product List | Glossary On
Versions: 1 2 3 4 5 6 7 8 9 10 11 12 13 14 15 16 17 18 19 20 21 22 23 24 25 26 27 28 29 30 31 32 33 34 35 36
000
FTAK31 PAFA 240745 AAA
TAFAOT
TAF AMD
PAOT 240745Z 2408/2506 24020KT P6SM -SHRA SCT020 BKN040
      TEMPO 2408/2410 -SHRA BKN020
     FM241000 25014G20KT P6SM -SHRA SCT007 OVC015
     FM241800 26011G16KT P6SM SCT015 BKN025
     FM250200 16007KT P6SM SCT025 BKN050=

USA.gov is the U.S. government's official web portal to all federal, state and local government web resources and services.